Time;durP1;ratioP1;P1;durP2;ratioP2;P2;SDS_P1;SDS_P2;PMS_P1;PMS_P2;Temp;Humidity;BMP_temperature;BMP_pressure;BME280_temperature;BME280_humidity;BME280_pressure;Samples;Min_cycle;Max_cycle;Signal;HPM_P1;HPM_P2
2022/06/20 00:01:37;;;;;;;7.43;3.80;;;17.20;99.90;;;;;;4938955;29;20771;-79
2022/06/20 00:04:03;;;;;;;4.70;3.70;;;17.20;99.90;;;;;;4938734;29;20427;-78
2022/06/20 00:06:29;;;;;;;5.80;3.57;;;17.20;99.90;;;;;;4938687;29;20175;-79
2022/06/20 00:08:55;;;;;;;4.40;3.10;;;17.00;99.90;;;;;;4938787;29;20211;-78
2022/06/20 00:11:50;;;;;;;4.00;3.60;;;17.00;99.90;;;;;;4938548;29;20207;-80
2022/06/20 00:14:18;;;;;;;7.80;4.40;;;17.00;99.90;;;;;;4938872;29;20830;-80
2022/06/20 00:16:45;;;;;;;6.63;3.30;;;17.10;99.90;;;;;;4938487;29;20787;-79
2022/06/20 00:19:11;;;;;;;8.33;3.13;;;17.10;99.90;;;;;;4938593;29;20434;-80
2022/06/20 00:21:38;;;;;;;10.33;3.63;;;17.10;99.90;;;;;;4938551;29;20918;-78
2022/06/20 00:24:04;;;;;;;4.17;3.30;;;17.20;99.90;;;;;;4938346;29;20441;-78
2022/06/20 00:26:30;;;;;;;8.00;3.77;;;16.90;99.90;;;;;;4938521;29;20862;-78
2022/06/20 00:28:56;;;;;;;4.57;3.50;;;16.90;99.90;;;;;;4938448;29;20434;-78
2022/06/20 00:31:22;;;;;;;5.00;3.60;;;16.80;99.90;;;;;;4938053;29;20234;-77
2022/06/20 00:33:48;;;;;;;6.13;3.30;;;16.80;99.90;;;;;;4938269;29;20822;-78
2022/06/20 00:36:14;;;;;;;4.50;3.57;;;17.00;99.90;;;;;;4938274;29;20454;-78
2022/06/20 00:38:41;;;;;;;6.63;4.03;;;17.00;99.90;;;;;;4938254;29;20182;-79
2022/06/20 00:41:14;;;;;;;7.13;3.77;;;16.90;99.90;;;;;;4937567;29;20538;-77
2022/06/20 00:43:45;;;;;;;4.30;3.77;;;16.80;99.90;;;;;;4938774;29;20437;-78
2022/06/20 00:46:18;;;;;;;9.10;4.40;;;16.90;99.90;;;;;;4938762;29;20434;-78
2022/06/20 00:48:52;;;;;;;5.63;4.57;;;16.80;99.90;;;;;;4938756;29;20513;-78
2022/06/20 00:51:31;;;;;;;7.50;4.80;;;16.80;99.90;;;;;;4938845;29;20786;-78
2022/06/20 00:54:16;;;;;;;6.30;3.90;;;16.60;99.90;;;;;;4938820;29;20880;-79
2022/06/20 00:56:53;;;;;;;4.93;3.70;;;16.70;99.90;;;;;;4938843;29;20933;-79
2022/06/20 00:59:28;;;;;;;6.63;4.97;;;16.80;99.90;;;;;;4938692;29;20433;-79
2022/06/20 01:01:55;;;;;;;5.57;4.10;;;16.70;99.90;;;;;;4938681;29;20434;-79
2022/06/20 01:04:42;;;;;;;6.00;4.73;;;16.70;99.90;;;;;;4938522;29;20441;-78
2022/06/20 01:07:16;;;;;;;7.63;4.70;;;16.70;99.90;;;;;;4938520;29;20422;-80
2022/06/20 01:09:45;;;;;;;6.07;4.90;;;16.70;99.90;;;;;;4938441;29;20433;-76
2022/06/20 01:12:19;;;;;;;5.83;4.93;;;16.80;99.90;;;;;;4938405;29;20434;-76
2022/06/20 01:14:45;;;;;;;5.10;4.30;;;16.80;99.90;;;;;;4938493;29;20463;-76
2022/06/20 01:17:35;;;;;;;5.93;4.37;;;16.80;99.90;;;;;;4938331;29;20481;-75
2022/06/20 01:20:19;;;;;;;5.83;4.63;;;16.80;99.90;;;;;;4938403;29;20183;-79
2022/06/20 01:23:07;;;;;;;6.63;4.67;;;16.90;99.90;;;;;;4938349;29;20463;-80
2022/06/20 04:32:34;;;;;;;7.93;6.27;;;15.40;99.90;;;;;;5096299;23;20564;-79
2022/06/20 04:35:07;;;;;;;16.33;5.10;;;15.50;99.90;;;;;;4954817;29;20444;-79
2022/06/20 04:37:57;;;;;;;6.10;5.07;;;15.70;99.90;;;;;;4954093;29;20433;-78
2022/06/20 04:40:37;;;;;;;10.87;4.37;;;15.70;99.90;;;;;;4954941;29;20429;-76
2022/06/20 04:43:15;;;;;;;11.37;5.00;;;15.80;99.90;;;;;;4954282;29;20904;-85
2022/06/20 04:46:11;;;;;;;9.60;5.07;;;15.80;99.90;;;;;;4957634;29;20964;-79
2022/06/20 04:48:37;;;;;;;9.23;4.60;;;15.90;99.90;;;;;;4957292;29;20504;-77
2022/06/20 04:51:12;;;;;;;7.13;4.30;;;16.00;99.90;;;;;;4956577;29;20529;-78
2022/06/20 04:53:42;;;;;;;8.43;5.50;;;16.00;99.90;;;;;;4956569;29;20182;-74
2022/06/20 04:56:12;;;;;;;7.83;4.43;;;16.10;99.90;;;;;;4956550;29;20442;-75
2022/06/20 04:58:49;;;;;;;8.93;4.30;;;16.20;99.90;;;;;;4956598;29;20430;-76
2022/06/20 05:01:17;;;;;;;7.67;5.30;;;16.20;99.90;;;;;;4956632;29;20995;-74
2022/06/20 05:03:55;;;;;;;8.67;4.90;;;16.20;99.90;;;;;;4956497;29;20540;-75
2022/06/20 05:06:25;;;;;;;7.73;5.13;;;16.20;99.90;;;;;;4954906;29;20417;-75
2022/06/20 05:08:53;;;;;;;7.23;4.57;;;16.20;99.90;;;;;;4956500;29;20430;-79
2022/06/20 05:11:27;;;;;;;10.47;5.23;;;16.20;99.90;;;;;;4939712;29;20430;-79
2022/06/20 05:13:58;;;;;;;8.00;3.90;;;16.20;99.90;;;;;;4956523;29;20434;-79
2022/06/20 05:16:30;;;;;;;7.80;4.17;;;16.20;99.90;;;;;;4956302;29;20426;-80
2022/06/20 05:19:02;;;;;;;11.87;5.47;;;16.20;99.90;;;;;;4954367;29;20436;-77
2022/06/20 05:21:32;;;;;;;5.17;4.67;;;16.20;99.90;;;;;;4956071;29;21078;-77
2022/06/20 05:24:04;;;;;;;15.37;4.50;;;16.20;99.90;;;;;;4956075;29;20488;-76
2022/06/20 05:26:34;;;;;;;9.50;5.50;;;16.20;99.90;;;;;;4956158;29;20512;-77
2022/06/20 05:29:03;;;;;;;5.40;4.33;;;16.20;99.90;;;;;;4953323;29;20434;-76
2022/06/20 05:31:42;;;;;;;11.43;4.37;;;16.20;99.90;;;;;;4953188;29;20462;-73
2022/06/20 05:34:22;;;;;;;13.50;4.50;;;16.20;99.90;;;;;;4952790;29;20807;-74
2022/06/20 05:37:13;;;;;;;15.17;4.93;;;16.20;99.90;;;;;;4956539;29;20429;-74
2022/06/20 05:39:41;;;;;;;6.57;4.43;;;16.20;99.90;;;;;;4956958;29;20888;-73
2022/06/20 05:42:11;;;;;;;8.33;3.87;;;16.20;99.90;;;;;;4956940;29;20921;-73
2022/06/20 05:44:37;;;;;;;6.20;4.37;;;16.20;99.90;;;;;;4957086;29;20870;-72
2022/06/20 05:47:23;;;;;;;9.87;4.23;;;16.30;99.90;;;;;;4956843;29;20466;-73
2022/06/20 05:50:03;;;;;;;6.23;4.53;;;16.30;99.90;;;;;;4956972;29;20806;-73
2022/06/20 05:52:33;;;;;;;7.20;3.67;;;16.30;99.90;;;;;;4957033;29;20429;-73
2022/06/20 05:55:05;;;;;;;5.37;4.20;;;16.30;99.90;;;;;;4956498;28;20465;-72
2022/06/20 05:57:33;;;;;;;9.73;3.77;;;16.30;99.90;;;;;;4939208;29;20834;-73
2022/06/20 06:00:07;;;;;;;7.13;3.80;;;16.30;99.90;;;;;;4956782;29;20525;-72
2022/06/20 06:02:39;;;;;;;5.73;4.20;;;16.30;99.90;;;;;;4956723;29;20540;-72
2022/06/20 06:05:23;;;;;;;7.20;4.20;;;16.30;99.90;;;;;;4956658;29;20448;-72
2022/06/20 06:07:53;;;;;;;6.57;4.20;;;16.30;99.90;;;;;;4956585;29;20772;-74
2022/06/20 06:10:47;;;;;;;14.80;5.00;;;16.30;99.90;;;;;;4956037;29;20790;-74
2022/06/20 06:13:40;;;;;;;11.53;7.03;;;16.30;99.90;;;;;;4955079;29;20434;-75
2022/06/20 06:19:37;;;;;;;14.13;7.80;;;16.30;99.90;;;;;;4955480;29;20937;-74
2022/06/20 06:22:13;;;;;;;11.10;6.17;;;16.30;99.90;;;;;;4955182;29;20433;-74
2022/06/20 06:24:42;;;;;;;8.80;4.70;;;16.30;99.90;;;;;;4954781;29;20446;-75
2022/06/20 06:27:12;;;;;;;12.07;5.10;;;16.30;99.90;;;;;;4954968;29;20513;-75
2022/06/20 06:29:44;;;;;;;11.93;4.40;;;16.30;99.90;;;;;;4952587;29;20553;-74
2022/06/20 06:32:17;;;;;;;14.13;4.30;;;16.30;99.90;;;;;;4954446;29;20470;-75
2022/06/20 06:35:01;;;;;;;7.70;4.30;;;16.30;99.90;;;;;;4951719;29;20578;-74
2022/06/20 06:37:35;;;;;;;7.07;4.30;;;16.30;99.90;;;;;;4955803;29;20430;-75
2022/06/20 06:40:10;;;;;;;13.03;3.90;;;16.30;99.90;;;;;;4955271;29;20422;-75
2022/06/20 06:42:36;;;;;;;8.50;4.03;;;16.30;99.90;;;;;;4955594;29;20461;-75
2022/06/20 06:45:05;;;;;;;7.10;4.20;;;16.30;99.90;;;;;;4956030;29;20801;-75
2022/06/20 06:47:38;;;;;;;7.43;3.40;;;16.30;99.90;;;;;;4956010;29;20771;-75
2022/06/20 06:50:20;;;;;;;12.00;5.53;;;16.40;99.90;;;;;;4955288;29;20769;-76
2022/06/20 06:52:56;;;;;;;6.17;3.30;;;16.40;99.90;;;;;;4954388;29;20421;-74
2022/06/20 06:55:36;;;;;;;8.67;4.43;;;16.50;99.90;;;;;;4954957;29;20956;-75
2022/06/20 06:58:04;;;;;;;7.53;3.93;;;16.50;99.90;;;;;;4953843;29;20426;-75
2022/06/20 07:00:41;;;;;;;10.40;4.33;;;16.40;99.90;;;;;;4955379;29;20761;-74
2022/06/20 07:03:33;;;;;;;8.00;3.87;;;16.50;99.90;;;;;;4953745;29;21015;-74
2022/06/20 07:06:02;;;;;;;8.63;3.90;;;16.50;99.90;;;;;;4955511;29;20421;-74
2022/06/20 07:08:38;;;;;;;7.30;3.87;;;16.60;99.90;;;;;;4955284;28;20461;-75
2022/06/20 07:11:21;;;;;;;6.57;4.60;;;16.60;99.90;;;;;;4955496;29;20417;-75
2022/06/20 07:14:20;;;;;;;10.13;4.00;;;16.60;99.90;;;;;;4955480;29;20426;-75
2022/06/20 07:16:54;;;;;;;12.37;4.27;;;16.60;99.90;;;;;;4955523;29;20425;-74
2022/06/20 07:19:20;;;;;;;10.10;4.13;;;16.70;99.90;;;;;;4955349;29;20420;-74
2022/06/20 07:21:46;;;;;;;9.00;4.00;;;16.70;99.90;;;;;;4955348;29;20489;-74
2022/06/20 07:24:17;;;;;;;10.20;4.57;;;16.60;99.90;;;;;;4955157;29;20477;-74
2022/06/20 07:26:53;;;;;;;12.07;4.00;;;16.60;99.90;;;;;;4955402;29;20198;-73
2022/06/20 07:29:27;;;;;;;11.90;4.07;;;16.70;99.90;;;;;;4954968;29;20484;-74
2022/06/20 07:31:59;;;;;;;12.53;3.70;;;16.80;99.90;;;;;;4954997;29;20465;-74
2022/06/20 07:34:36;;;;;;;10.93;2.97;;;16.80;99.90;;;;;;4955166;29;20434;-74
2022/06/20 07:37:43;;;;;;;12.60;4.10;;;16.90;99.90;;;;;;4955194;29;20429;-74
2022/06/20 07:40:16;;;;;;;17.17;4.03;;;16.90;99.90;;;;;;4902256;29;20429;-74
2022/06/20 07:43:08;;;;;;;10.07;3.80;;;17.00;99.90;;;;;;4954354;29;20469;-73
2022/06/20 07:45:43;;;;;;;12.67;2.93;;;17.00;99.90;;;;;;4955194;29;20930;-74
2022/06/20 07:48:39;;;;;;;10.23;3.30;;;16.90;99.90;;;;;;4954954;29;20488;-74
2022/06/20 07:51:13;;;;;;;8.83;3.77;;;17.10;99.90;;;;;;4952960;29;20522;-75
2022/06/20 07:53:50;;;;;;;13.40;3.40;;;17.00;99.90;;;;;;4955074;29;20450;-75
2022/06/20 07:56:26;;;;;;;7.60;3.50;;;17.10;99.90;;;;;;4954908;29;20409;-74
2022/06/20 07:58:57;;;;;;;10.17;4.10;;;17.00;99.90;;;;;;4955028;29;20436;-74
2022/06/20 08:01:29;;;;;;;10.47;4.00;;;17.00;99.90;;;;;;4954912;29;20413;-74
2022/06/20 08:04:03;;;;;;;9.57;3.80;;;17.00;99.90;;;;;;4954876;29;20840;-74
2022/06/20 08:06:36;;;;;;;14.40;4.13;;;17.10;99.90;;;;;;4954861;29;20948;-76
2022/06/20 08:09:07;;;;;;;5.90;3.50;;;17.30;99.90;;;;;;4954829;29;20426;-75
2022/06/20 08:11:46;;;;;;;7.53;4.40;;;17.30;99.90;;;;;;4954942;29;20422;-75
2022/06/20 08:14:42;;;;;;;9.67;3.37;;;17.40;99.90;;;;;;4954737;29;20436;-75
2022/06/20 08:17:10;;;;;;;4.33;3.00;;;17.40;99.90;;;;;;4953063;29;20442;-75
2022/06/20 08:19:38;;;;;;;4.23;2.90;;;17.40;99.90;;;;;;4956542;28;20774;-75
2022/06/20 08:22:17;;;;;;;4.57;3.20;;;17.50;99.90;;;;;;4958360;29;20422;-77
2022/06/20 08:25:08;;;;;;;7.97;3.90;;;17.60;99.90;;;;;;4958519;29;20861;-73
2022/06/20 08:27:43;;;;;;;10.73;3.13;;;17.70;99.90;;;;;;4947372;29;20429;-74
2022/06/20 08:30:13;;;;;;;10.23;3.10;;;17.80;99.90;;;;;;4958444;29;20446;-74
2022/06/20 08:32:54;;;;;;;9.23;3.23;;;17.80;99.90;;;;;;4958193;29;20489;-73
2022/06/20 08:35:27;;;;;;;8.93;3.33;;;17.90;99.90;;;;;;4958217;29;20493;-74
2022/06/20 08:38:09;;;;;;;9.73;3.43;;;17.90;99.90;;;;;;4958537;29;20453;-75
2022/06/20 08:41:08;;;;;;;9.67;4.80;;;17.70;99.90;;;;;;4958283;29;20422;-75
2022/06/20 08:43:48;;;;;;;11.10;7.00;;;17.70;99.90;;;;;;4958185;29;20477;-75
2022/06/20 08:46:26;;;;;;;9.80;4.43;;;18.00;99.90;;;;;;4958104;29;20510;-75
2022/06/20 08:49:29;;;;;;;8.57;3.00;;;18.00;99.90;;;;;;4958009;29;20933;-75
2022/06/20 08:52:25;;;;;;;9.50;3.30;;;18.20;99.90;;;;;;4957989;29;20766;-75
2022/06/20 08:55:28;;;;;;;10.23;3.33;;;17.80;99.90;;;;;;4957931;29;20815;-76
2022/06/20 08:58:26;;;;;;;7.37;3.07;;;17.80;99.90;;;;;;4957736;29;20422;-75
2022/06/20 09:00:56;;;;;;;8.30;2.90;;;18.00;99.90;;;;;;4957676;29;20435;-75
2022/06/20 09:03:45;;;;;;;6.20;2.90;;;18.00;99.90;;;;;;4957543;29;20477;-76
2022/06/20 09:06:28;;;;;;;5.97;2.57;;;17.90;99.90;;;;;;4957814;29;20426;-75
2022/06/20 09:09:24;;;;;;;7.53;2.63;;;17.90;99.90;;;;;;4957677;29;20418;-76
2022/06/20 09:12:01;;;;;;;5.87;2.63;;;18.10;99.90;;;;;;4957636;29;20572;-75
2022/06/20 09:14:42;;;;;;;5.60;2.77;;;18.40;99.90;;;;;;4957589;29;20512;-76
2022/06/20 09:17:31;;;;;;;3.80;2.50;;;18.50;99.90;;;;;;4957458;29;20429;-76
2022/06/20 09:20:11;;;;;;;5.57;3.10;;;18.60;99.90;;;;;;4957469;29;20418;-76
2022/06/20 09:23:00;;;;;;;6.10;2.97;;;18.60;99.90;;;;;;4957411;29;20964;-76
2022/06/20 09:25:50;;;;;;;4.67;3.13;;;18.60;99.90;;;;;;4957553;29;20856;-76
2022/06/20 09:28:35;;;;;;;5.87;2.90;;;18.60;99.90;;;;;;4957356;29;20768;-76
2022/06/20 09:31:54;;;;;;;5.77;2.73;;;18.60;99.90;;;;;;4957027;28;20480;-75
2022/06/20 09:34:48;;;;;;;7.73;3.43;;;18.60;99.90;;;;;;4860734;29;20450;-75
2022/06/20 09:37:34;;;;;;;4.70;2.20;;;18.70;99.90;;;;;;4860771;29;20535;-76
2022/06/20 09:40:23;;;;;;;4.63;2.10;;;18.70;99.90;;;;;;4937102;29;20493;-75
2022/06/20 09:42:57;;;;;;;2.43;2.10;;;18.80;99.90;;;;;;4957046;29;20470;-75
2022/06/20 09:45:37;;;;;;;3.20;1.97;;;18.80;99.90;;;;;;4957015;29;20460;-75
2022/06/20 09:48:19;;;;;;;5.77;2.30;;;19.00;99.90;;;;;;4956922;29;20421;-75
2022/06/20 09:51:28;;;;;;;3.00;2.10;;;18.90;99.90;;;;;;4956950;29;20422;-74
2022/06/20 09:54:05;;;;;;;5.03;1.90;;;18.90;99.90;;;;;;4956881;29;20945;-73
2022/06/20 09:56:46;;;;;;;5.20;2.10;;;18.90;99.90;;;;;;4956918;29;20480;-74
2022/06/20 09:59:54;;;;;;;5.23;1.77;;;19.00;99.90;;;;;;4956822;29;20937;-74
2022/06/20 10:02:53;;;;;;;3.43;1.70;;;19.10;99.90;;;;;;4956600;29;20469;-75
2022/06/20 10:05:42;;;;;;;2.87;2.03;;;19.20;99.90;;;;;;4956539;29;20473;-75
2022/06/20 10:08:27;;;;;;;2.60;1.47;;;19.30;99.90;;;;;;4955628;29;20835;-73
2022/06/20 10:11:12;;;;;;;3.73;2.17;;;19.20;99.90;;;;;;4955789;29;20512;-74
2022/06/20 10:13:45;;;;;;;4.13;2.20;;;19.20;99.90;;;;;;4955673;29;20422;-74
2022/06/20 10:16:13;;;;;;;5.07;2.03;;;19.30;99.90;;;;;;4955576;29;20410;-75
2022/06/20 10:19:03;;;;;;;9.20;2.00;;;19.40;99.90;;;;;;4955603;29;20510;-74
2022/06/20 10:21:55;;;;;;;2.77;2.33;;;19.30;99.90;;;;;;4955400;29;20445;-75
2022/06/20 10:24:50;;;;;;;3.53;2.80;;;19.40;99.90;;;;;;4955425;29;20473;-75
2022/06/20 10:27:37;;;;;;;4.50;2.30;;;19.40;99.90;;;;;;4955179;29;20470;-75
2022/06/20 10:30:06;;;;;;;7.43;2.40;;;19.50;99.90;;;;;;4955442;29;20430;-74
2022/06/20 10:32:32;;;;;;;3.97;1.83;;;19.50;99.90;;;;;;4954758;29;20474;-74
2022/06/20 10:35:15;;;;;;;3.00;2.17;;;19.70;99.90;;;;;;4955147;29;20465;-83
2022/06/20 10:38:37;;;;;;;5.43;1.87;;;19.90;99.90;;;;;;4955360;29;20175;-81
2022/06/20 10:41:06;;;;;;;4.43;1.97;;;19.90;99.90;;;;;;4857445;29;21055;-84
2022/06/20 10:43:44;;;;;;;3.50;2.23;;;19.90;99.90;;;;;;4857723;29;20482;-83
2022/06/20 10:46:24;;;;;;;2.77;1.70;;;19.90;99.90;;;;;;4925396;29;20442;-81
2022/06/20 10:49:05;;;;;;;6.27;2.43;;;19.80;99.90;;;;;;4954969;29;20544;-83
2022/06/20 10:52:08;;;;;;;4.77;2.77;;;19.60;99.90;;;;;;4954920;29;20772;-81
2022/06/20 10:55:10;;;;;;;2.10;1.80;;;19.60;99.90;;;;;;4954710;29;20545;-81
2022/06/20 10:57:42;;;;;;;3.33;2.07;;;19.80;99.90;;;;;;4954986;29;20425;-82
2022/06/20 11:00:20;;;;;;;5.70;2.80;;;19.80;99.90;;;;;;4955286;29;20794;-86
2022/06/20 11:03:11;;;;;;;2.43;1.77;;;19.80;99.90;;;;;;4954840;29;20468;-86
2022/06/20 11:05:39;;;;;;;5.50;2.60;;;20.00;99.90;;;;;;4955129;29;20440;-87
2022/06/20 11:08:23;;;;;;;8.67;2.30;;;19.70;99.90;;;;;;4955200;29;20437;-82
2022/06/20 11:11:03;;;;;;;3.30;2.17;;;19.70;99.90;;;;;;4954683;29;20449;-83
2022/06/20 11:13:44;;;;;;;4.47;2.70;;;19.80;99.90;;;;;;4954163;29;20430;-84
2022/06/20 11:16:15;;;;;;;3.07;1.80;;;19.90;99.90;;;;;;4951840;29;20956;-84
2022/06/20 11:18:55;;;;;;;2.97;1.90;;;19.90;99.90;;;;;;4954892;29;20442;-93
2022/06/20 11:21:47;;;;;;;2.33;2.13;;;19.80;99.90;;;;;;4954395;29;21099;-83
2022/06/20 11:24:47;;;;;;;3.00;2.57;;;19.70;99.90;;;;;;4952201;29;20510;-84
2022/06/20 11:27:40;;;;;;;4.80;2.00;;;19.90;99.90;;;;;;4952170;29;20430;-86
2022/06/20 11:30:27;;;;;;;6.57;2.40;;;20.10;99.90;;;;;;4952009;29;20434;-91
2022/06/20 11:33:05;;;;;;;9.23;2.50;;;20.30;99.90;;;;;;4953513;29;20445;-87
2022/06/20 11:35:45;;;;;;;3.80;2.30;;;20.30;99.90;;;;;;4953886;29;20445;-84
2022/06/20 11:38:23;;;;;;;4.80;2.13;;;20.40;99.90;;;;;;4954169;29;20434;-84
2022/06/20 11:41:05;;;;;;;3.43;1.90;;;20.50;99.90;;;;;;4954156;29;20435;-85
2022/06/20 11:44:06;;;;;;;7.90;2.43;;;20.50;99.90;;;;;;4952741;29;20521;-88
2022/06/20 11:46:58;;;;;;;5.00;2.07;;;20.50;99.90;;;;;;4954259;29;20441;-87
2022/06/20 11:49:51;;;;;;;2.97;1.70;;;20.50;97.90;;;;;;4954802;29;20469;-88
2022/06/20 11:52:48;;;;;;;5.83;2.53;;;20.50;98.00;;;;;;4954598;29;20422;-88
2022/06/20 11:55:39;;;;;;;4.20;2.00;;;20.50;98.50;;;;;;4957160;29;20426;-88
2022/06/20 11:58:16;;;;;;;4.70;2.40;;;20.70;98.80;;;;;;4958167;29;20477;-87
2022/06/20 12:01:08;;;;;;;4.63;2.50;;;21.00;99.50;;;;;;4958405;29;20449;-88
2022/06/20 12:03:46;;;;;;;2.63;2.20;;;21.10;93.70;;;;;;4958249;29;20473;-90
2022/06/20 12:06:23;;;;;;;4.57;2.33;;;21.20;94.30;;;;;;4958270;29;20433;-88
2022/06/20 12:08:56;;;;;;;7.87;2.30;;;21.50;98.70;;;;;;4957855;29;20496;-74
2022/06/20 12:11:27;;;;;;;5.73;2.67;;;21.70;90.40;;;;;;4957855;29;20434;-73
2022/06/20 12:14:11;;;;;;;4.68;2.58;;;21.80;90.30;;;;;;4956890;29;20431;-84
2022/06/20 12:16:59;;;;;;;7.40;3.00;;;21.80;91.80;;;;;;4957785;29;20171;-83
2022/06/20 12:25:34;;;;;;;3.93;2.10;;;21.70;90.30;;;;;;4954814;29;20497;-83
2022/06/20 12:28:00;;;;;;;2.50;2.07;;;21.70;93.20;;;;;;4953401;29;20444;-81
2022/06/20 12:30:26;;;;;;;5.20;2.97;;;21.80;92.10;;;;;;4956907;29;20438;-80
2022/06/20 12:32:55;;;;;;;5.13;2.80;;;21.90;91.80;;;;;;4954444;29;20193;-79
2022/06/20 12:35:46;;;;;;;4.23;2.70;;;22.00;91.60;;;;;;4957003;29;20465;-80
2022/06/20 12:38:22;;;;;;;7.53;2.33;;;21.80;90.30;;;;;;4946032;29;20988;-84
2022/06/20 12:40:55;;;;;;;5.13;3.17;;;21.90;91.20;;;;;;4956691;29;20468;-81
2022/06/20 12:43:54;;;;;;;6.00;2.60;;;22.10;90.00;;;;;;4956863;29;20496;-80
2022/06/20 12:46:38;;;;;;;6.20;2.87;;;22.20;90.40;;;;;;4918466;29;20619;-70
2022/06/20 12:49:37;;;;;;;3.67;3.00;;;22.30;88.30;;;;;;4957562;29;20438;-70
2022/06/20 12:52:09;;;;;;;2.83;2.30;;;22.40;90.00;;;;;;4957532;29;20822;-70
2022/06/20 12:54:55;;;;;;;3.20;2.80;;;22.60;90.10;;;;;;4957872;29;20428;-70
2022/06/20 12:57:46;;;;;;;6.30;2.97;;;22.60;83.00;;;;;;4957870;29;20446;-70
2022/06/20 13:00:35;;;;;;;3.50;2.33;;;22.60;89.80;;;;;;4958049;29;20429;-70
2022/06/20 13:03:30;;;;;;;4.70;3.13;;;22.60;90.10;;;;;;4957703;29;20556;-69
2022/06/20 13:06:26;;;;;;;6.80;2.87;;;22.60;90.80;;;;;;4957089;28;20422;-70
2022/06/20 13:09:06;;;;;;;7.07;3.03;;;22.80;84.40;;;;;;4957605;29;20445;-67
2022/06/20 13:11:59;;;;;;;5.90;2.90;;;23.00;85.20;;;;;;4957564;29;20434;-68
2022/06/20 13:14:38;;;;;;;7.47;3.10;;;22.90;85.60;;;;;;4956224;29;20831;-73
2022/06/20 13:17:15;;;;;;;4.30;2.47;;;22.80;83.30;;;;;;4956121;29;20323;-73
2022/06/20 13:20:15;;;;;;;3.47;2.70;;;22.70;80.10;;;;;;4955843;29;20460;-68
2022/06/20 13:22:55;;;;;;;4.60;2.77;;;22.60;81.40;;;;;;4956863;29;20477;-75
2022/06/20 13:25:48;;;;;;;3.40;2.80;;;22.10;84.30;;;;;;4957025;29;20789;-75
2022/06/20 13:28:25;;;;;;;6.30;2.30;;;22.10;89.50;;;;;;4955334;29;20544;-71
2022/06/20 13:31:13;;;;;;;5.83;2.60;;;22.00;80.00;;;;;;4954751;29;20458;-73
2022/06/20 13:33:45;;;;;;;4.73;2.60;;;22.10;84.60;;;;;;4955962;29;20434;-73
2022/06/20 13:36:27;;;;;;;4.77;2.70;;;22.30;86.50;;;;;;4954846;29;20438;-72
2022/06/20 13:39:05;;;;;;;7.10;2.70;;;22.60;90.50;;;;;;4954881;29;20441;-70
2022/06/20 13:41:42;;;;;;;3.57;2.60;;;22.70;87.20;;;;;;4954614;29;20853;-71
2022/06/20 13:44:29;;;;;;;7.27;2.50;;;22.70;84.30;;;;;;4954081;29;20478;-74
2022/06/20 13:47:08;;;;;;;5.07;2.60;;;22.40;82.80;;;;;;4955057;29;20945;-73
2022/06/20 13:49:58;;;;;;;5.97;3.07;;;22.50;85.60;;;;;;4955051;29;20557;-74
2022/06/20 13:52:47;;;;;;;4.60;2.50;;;22.40;85.10;;;;;;4956366;29;20517;-71
2022/06/20 13:55:23;;;;;;;5.53;2.50;;;22.30;83.60;;;;;;4911614;29;20430;-71
2022/06/20 13:58:12;;;;;;;2.70;2.00;;;22.20;83.50;;;;;;4956239;29;20963;-72
2022/06/20 14:00:38;;;;;;;5.87;2.20;;;22.10;82.00;;;;;;4955521;29;20434;-72
2022/06/20 14:03:23;;;;;;;5.63;2.50;;;22.00;79.20;;;;;;4956486;29;20474;-70
2022/06/20 14:05:49;;;;;;;8.77;2.77;;;22.00;77.30;;;;;;4956749;29;20465;-69
2022/06/20 14:08:20;;;;;;;8.33;2.50;;;22.10;80.70;;;;;;4956574;29;20445;-68
2022/06/20 14:10:47;;;;;;;4.00;2.83;;;22.20;82.80;;;;;;4956369;29;20440;-68
2022/06/20 14:13:24;;;;;;;3.73;2.10;;;22.40;76.10;;;;;;4956469;29;20438;-77
2022/06/20 14:15:52;;;;;;;7.00;2.40;;;22.30;75.30;;;;;;4956480;28;20481;-74
2022/06/20 14:18:23;;;;;;;4.67;2.33;;;22.40;76.90;;;;;;4955730;29;20458;-73
2022/06/20 14:20:57;;;;;;;2.80;2.23;;;22.50;74.40;;;;;;4956460;29;20840;-73
2022/06/20 14:23:23;;;;;;;3.00;2.00;;;22.70;75.90;;;;;;4956096;29;20556;-74
2022/06/20 14:25:51;;;;;;;4.70;2.40;;;23.00;77.80;;;;;;4955974;29;20427;-75
2022/06/20 14:28:40;;;;;;;8.70;3.47;;;23.10;75.30;;;;;;4956042;29;20536;-76
2022/06/20 14:31:24;;;;;;;4.87;2.73;;;23.10;75.90;;;;;;4955935;29;20474;-75
2022/06/20 14:34:25;;;;;;;5.97;2.20;;;23.00;78.40;;;;;;4956252;29;20723;-79
2022/06/20 14:37:12;;;;;;;4.57;1.93;;;23.20;78.80;;;;;;4919542;29;20422;-76
2022/06/20 14:39:49;;;;;;;4.40;2.30;;;23.40;76.40;;;;;;4956023;29;20996;-77
2022/06/20 14:42:20;;;;;;;4.30;1.93;;;23.60;75.60;;;;;;4955803;29;20446;-78
2022/06/20 14:44:52;;;;;;;3.90;2.10;;;23.70;72.30;;;;;;4955933;29;20434;-72
2022/06/20 14:47:52;;;;;;;3.80;2.10;;;23.60;72.90;;;;;;4955432;29;20429;-75
2022/06/20 14:50:54;;;;;;;6.40;2.20;;;23.50;69.80;;;;;;4955594;29;20436;-77
2022/06/20 14:53:29;;;;;;;2.93;2.30;;;23.30;68.90;;;;;;4918193;29;20782;-77
2022/06/20 14:56:15;;;;;;;4.57;1.50;;;23.20;69.70;;;;;;4955629;29;20430;-76
2022/06/20 14:58:56;;;;;;;4.70;2.00;;;23.10;72.60;;;;;;4955485;29;20868;-75
2022/06/20 15:01:48;;;;;;;5.17;1.90;;;23.30;72.20;;;;;;4955283;29;20533;-76
2022/06/20 15:04:43;;;;;;;3.13;2.00;;;23.50;69.30;;;;;;4955007;29;20482;-76
2022/06/20 15:08:01;;;;;;;2.50;1.43;;;23.30;66.80;;;;;;4952088;28;20509;-77
2022/06/20 15:10:46;;;;;;;4.20;2.50;;;23.30;69.10;;;;;;4869612;29;20437;-77
2022/06/20 15:13:31;;;;;;;1.83;1.57;;;23.50;69.40;;;;;;4889337;29;20436;-76
2022/06/20 15:16:08;;;;;;;3.57;1.57;;;23.70;72.60;;;;;;4939912;28;21011;-78
2022/06/20 15:18:47;;;;;;;4.30;2.80;;;23.70;67.00;;;;;;4945150;28;20447;-77
2022/06/20 15:21:26;;;;;;;3.60;1.90;;;23.40;66.20;;;;;;4945913;28;20426;-75
2022/06/20 15:24:13;;;;;;;2.60;2.00;;;23.10;67.10;;;;;;4949750;28;20953;-75
2022/06/20 15:26:40;;;;;;;3.77;2.10;;;23.10;67.50;;;;;;4949519;28;20478;-74
2022/06/20 15:29:25;;;;;;;4.68;1.60;;;23.20;70.20;;;;;;4945830;28;20527;-74
2022/06/20 15:32:01;;;;;;;2.87;1.90;;;23.50;71.10;;;;;;4948148;28;20226;-74
2022/06/20 15:34:32;;;;;;;6.00;1.97;;;23.70;67.90;;;;;;4947074;28;20783;-75
2022/06/20 15:37:20;;;;;;;4.10;2.30;;;23.60;67.30;;;;;;4953519;28;20511;-76
2022/06/20 15:40:00;;;;;;;4.80;1.83;;;23.70;66.90;;;;;;4967322;28;20755;-73
2022/06/20 15:42:46;;;;;;;8.67;3.43;;;23.70;69.00;;;;;;4966826;28;20537;-74
2022/06/20 15:45:34;;;;;;;6.27;2.17;;;23.60;67.20;;;;;;4958057;28;20488;-75
2022/06/20 15:48:13;;;;;;;2.27;2.07;;;23.30;65.20;;;;;;4971848;28;20484;-75
2022/06/20 15:50:49;;;;;;;6.53;2.47;;;23.10;65.30;;;;;;4959981;28;20548;-75
2022/06/20 15:53:24;;;;;;;3.80;2.10;;;23.10;66.80;;;;;;4953568;28;20532;-75
2022/06/20 15:55:54;;;;;;;3.87;2.30;;;23.30;68.50;;;;;;4963273;28;20439;-75
2022/06/20 15:58:57;;;;;;;5.37;3.43;;;23.30;67.90;;;;;;4961839;28;20527;-75
2022/06/20 16:02:11;;;;;;;5.17;2.07;;;23.20;67.60;;;;;;4954647;29;20461;-77
2022/06/20 16:04:48;;;;;;;4.20;1.90;;;23.10;65.90;;;;;;4954756;29;20568;-76
2022/06/20 16:07:35;;;;;;;5.60;2.33;;;23.10;64.00;;;;;;4955030;29;20426;-76
2022/06/20 16:10:20;;;;;;;3.30;1.83;;;23.30;64.20;;;;;;4954180;29;20426;-77
2022/06/20 16:13:07;;;;;;;3.90;1.90;;;23.40;63.90;;;;;;4954809;29;20782;-76
2022/06/20 16:15:38;;;;;;;3.73;1.50;;;23.50;65.20;;;;;;4954973;29;20780;-76
2022/06/20 16:18:21;;;;;;;3.97;1.50;;;23.50;63.60;;;;;;4954871;29;20456;-77
2022/06/20 16:20:58;;;;;;;3.97;1.87;;;23.50;63.90;;;;;;4954927;29;20418;-76
2022/06/20 16:23:33;;;;;;;4.27;1.60;;;23.50;63.00;;;;;;4954781;29;20543;-76
2022/06/20 16:26:04;;;;;;;3.60;1.60;;;23.50;65.40;;;;;;4954746;29;20496;-76
2022/06/20 16:28:33;;;;;;;3.90;1.80;;;23.60;63.20;;;;;;4954568;29;20430;-76
2022/06/20 16:31:22;;;;;;;8.67;1.80;;;23.60;61.80;;;;;;4954214;29;20497;-76
2022/06/20 16:33:51;;;;;;;4.10;1.77;;;23.60;60.50;;;;;;4954441;29;20473;-73
2022/06/20 16:36:31;;;;;;;6.20;1.60;;;23.60;63.90;;;;;;4954347;29;20422;-70
2022/06/20 16:39:09;;;;;;;6.57;1.87;;;23.70;62.70;;;;;;4954499;28;20776;-72
2022/06/20 16:42:27;;;;;;;4.00;2.10;;;23.70;61.90;;;;;;4956938;29;20955;-72
2022/06/20 16:45:02;;;;;;;4.63;2.00;;;23.70;60.70;;;;;;4872876;29;20452;-72
2022/06/20 16:47:42;;;;;;;4.67;2.53;;;23.60;59.70;;;;;;4945393;29;20460;-72
2022/06/20 16:50:15;;;;;;;3.70;1.93;;;23.50;59.80;;;;;;4956742;29;20430;-71
2022/06/20 16:52:48;;;;;;;2.50;1.80;;;23.50;61.80;;;;;;4954034;29;20427;-71
2022/06/20 16:55:27;;;;;;;4.70;1.60;;;23.40;62.80;;;;;;4956700;29;20475;-72
2022/06/20 16:58:13;;;;;;;7.00;2.20;;;23.50;61.80;;;;;;4955449;29;20422;-73
2022/06/20 17:00:45;;;;;;;4.43;1.60;;;23.40;60.40;;;;;;4956294;29;20796;-72
2022/06/20 17:03:49;;;;;;;5.20;2.40;;;23.40;60.50;;;;;;4956295;29;20472;-71
2022/06/20 17:06:24;;;;;;;2.70;1.40;;;23.30;62.40;;;;;;4955981;29;20484;-70
2022/06/20 17:08:57;;;;;;;3.83;1.70;;;23.20;59.40;;;;;;4956618;29;20437;-70